RYR7WG EFHK-EGSS
Flight info
| Callsign | RYR7WG |
|---|---|
| Flight time | 2h 45m |
| Altitude | 36000 |
| Route | KUVEM Y366 USITU DCT MAKUR DCT EVAKI DCT AMRAM DCT SUTEB DCT LONAM DCT BINBO DCT AKOKO N866 KUBAX Z150 MEGEL |
| Aircraft | B738/M-SDE2E3FGHIRWXY/LB1 |
Departure
| Time | 2026-05-05 21:19 |
|---|---|
| Airport | Helsinki Vantaa Airport (EFHK) |
Arrival
| Time | 2026-05-06 00:05 |
|---|---|
| Airport | London Stansted Airport (EGSS) |
| Time | Latitude | Longitude | Altitude | Speed | Heading |
|---|---|---|---|---|---|
| 2026-05-05 20:53 | 60.31507 | 24.95718 | 188 ft | 0 kts | 138° |
| 2026-05-05 21:08 | 60.31515 | 24.95703 | 188 ft | 2 kts | 137° |
| 2026-05-05 21:09 | 60.31523 | 24.95690 | 188 ft | 2 kts | 137° |
| 2026-05-05 21:09 | 60.31532 | 24.95666 | 188 ft | 2 kts | 119° |
| 2026-05-05 21:09 | 60.31538 | 24.95639 | 188 ft | 2 kts | 107° |
| 2026-05-05 21:09 | 60.31541 | 24.95609 | 188 ft | 2 kts | 93° |
| 2026-05-05 21:10 | 60.31541 | 24.95579 | 188 ft | 2 kts | 80° |
| 2026-05-05 21:10 | 60.31537 | 24.95551 | 188 ft | 2 kts | 67° |
| 2026-05-05 21:10 | 60.31530 | 24.95525 | 188 ft | 2 kts | 53° |
| 2026-05-05 21:10 | 60.31525 | 24.95512 | 188 ft | 1 kts | 45° |
| 2026-05-05 21:11 | 60.31522 | 24.95507 | 188 ft | 0 kts | 46° |
| 2026-05-05 21:13 | 60.31535 | 24.95536 | 188 ft | 7 kts | 47° |
| 2026-05-05 21:13 | 60.31589 | 24.95654 | 188 ft | 12 kts | 42° |
| 2026-05-05 21:13 | 60.31658 | 24.95625 | 188 ft | 10 kts | 317° |
| 2026-05-05 21:14 | 60.31715 | 24.95542 | 188 ft | 10 kts | 352° |
| 2026-05-05 21:14 | 60.31786 | 24.95645 | 188 ft | 13 kts | 47° |
| 2026-05-05 21:14 | 60.31848 | 24.95779 | 188 ft | 12 kts | 47° |
| 2026-05-05 21:14 | 60.31900 | 24.95894 | 188 ft | 9 kts | 47° |
| 2026-05-05 21:15 | 60.31945 | 24.95960 | 188 ft | 7 kts | 8° |
| 2026-05-05 21:15 | 60.31991 | 24.95909 | 188 ft | 11 kts | 319° |
| 2026-05-05 21:15 | 60.32079 | 24.95740 | 188 ft | 21 kts | 316° |
| 2026-05-05 21:15 | 60.32197 | 24.95516 | 188 ft | 22 kts | 317° |
| 2026-05-05 21:16 | 60.32306 | 24.95316 | 188 ft | 20 kts | 319° |
| 2026-05-05 21:16 | 60.32423 | 24.95216 | 188 ft | 18 kts | 342° |
| 2026-05-05 21:16 | 60.32547 | 24.95134 | 188 ft | 16 kts | 342° |
| 2026-05-05 21:16 | 60.32658 | 24.95066 | 188 ft | 18 kts | 342° |
| 2026-05-05 21:17 | 60.32775 | 24.94987 | 188 ft | 16 kts | 342° |
| 2026-05-05 21:17 | 60.32893 | 24.94906 | 188 ft | 18 kts | 332° |
| 2026-05-05 21:17 | 60.32986 | 24.94744 | 188 ft | 17 kts | 316° |
| 2026-05-05 21:17 | 60.33046 | 24.94564 | 188 ft | 14 kts | 276° |
| 2026-05-05 21:18 | 60.33051 | 24.94375 | 188 ft | 13 kts | 272° |
| 2026-05-05 21:18 | 60.33023 | 24.94178 | 188 ft | 16 kts | 227° |
| 2026-05-05 21:18 | 60.32944 | 24.94005 | 188 ft | 20 kts | 227° |
| 2026-05-05 21:18 | 60.32686 | 24.93441 | 189 ft | 93 kts | 227° |
| 2026-05-05 21:19 | 60.32091 | 24.92139 | 190 ft | 156 kts | 227° |
| 2026-05-05 21:19 | 60.31296 | 24.90439 | 737 ft | 169 kts | 228° |
| 2026-05-05 21:19 | 60.30512 | 24.88763 | 1656 ft | 169 kts | 229° |
| 2026-05-05 21:19 | 60.29906 | 24.86792 | 2313 ft | 174 kts | 253° |
| 2026-05-05 21:20 | 60.29812 | 24.84208 | 2744 ft | 196 kts | 275° |
| 2026-05-05 21:20 | 60.30068 | 24.81299 | 3031 ft | 228 kts | 281° |
| 2026-05-05 21:20 | 60.30375 | 24.78011 | 3529 ft | 251 kts | 275° |
| 2026-05-05 21:20 | 60.30257 | 24.74531 | 4537 ft | 252 kts | 253° |
| 2026-05-05 21:21 | 60.29449 | 24.71340 | 5273 ft | 264 kts | 237° |
| 2026-05-05 21:21 | 60.28543 | 24.68186 | 6363 ft | 261 kts | 245° |
| 2026-05-05 21:21 | 60.27817 | 24.64901 | 7317 ft | 263 kts | 247° |
| 2026-05-05 21:21 | 60.27100 | 24.61513 | 8275 ft | 266 kts | 247° |
| 2026-05-05 21:22 | 60.26391 | 24.58115 | 9218 ft | 269 kts | 247° |
| 2026-05-05 21:22 | 60.25676 | 24.54655 | 10161 ft | 272 kts | 247° |
| 2026-05-05 21:22 | 60.24952 | 24.51143 | 11103 ft | 276 kts | 247° |
| 2026-05-05 21:22 | 60.24300 | 24.47513 | 12013 ft | 281 kts | 255° |
| 2026-05-05 21:23 | 60.23906 | 24.43504 | 12394 ft | 306 kts | 259° |
| 2026-05-05 21:23 | 60.23518 | 24.39245 | 13103 ft | 317 kts | 258° |
| 2026-05-05 21:23 | 60.23095 | 24.34901 | 13932 ft | 324 kts | 257° |
| 2026-05-05 21:23 | 60.22660 | 24.30421 | 14833 ft | 329 kts | 258° |
| 2026-05-05 21:24 | 60.22226 | 24.25933 | 15730 ft | 333 kts | 258° |
| 2026-05-05 21:24 | 60.21775 | 24.21297 | 16614 ft | 337 kts | 258° |
| 2026-05-05 21:24 | 60.21326 | 24.16707 | 17457 ft | 341 kts | 258° |
| 2026-05-05 21:24 | 60.20869 | 24.12043 | 18274 ft | 345 kts | 258° |
| 2026-05-05 21:25 | 60.20401 | 24.07289 | 19073 ft | 349 kts | 258° |
| 2026-05-05 21:25 | 60.19924 | 24.02460 | 19847 ft | 353 kts | 258° |
| 2026-05-05 21:25 | 60.19447 | 23.97651 | 20581 ft | 357 kts | 258° |
| 2026-05-05 21:25 | 60.18958 | 23.92792 | 21288 ft | 361 kts | 258° |
| 2026-05-05 21:26 | 60.18389 | 23.87843 | 21988 ft | 364 kts | 256° |
| 2026-05-05 21:26 | 60.17782 | 23.82893 | 22633 ft | 368 kts | 256° |
| 2026-05-05 21:26 | 60.17185 | 23.77941 | 23273 ft | 372 kts | 257° |
| 2026-05-05 21:26 | 60.16580 | 23.72881 | 23894 ft | 375 kts | 257° |
| 2026-05-05 21:27 | 60.15967 | 23.67780 | 24480 ft | 379 kts | 257° |
| 2026-05-05 21:27 | 60.15345 | 23.62634 | 25062 ft | 382 kts | 257° |
| 2026-05-05 21:27 | 60.14716 | 23.57445 | 25615 ft | 385 kts | 257° |
| 2026-05-05 21:27 | 60.14076 | 23.52176 | 26152 ft | 389 kts | 257° |
| 2026-05-05 21:28 | 60.13437 | 23.46931 | 26647 ft | 392 kts | 257° |
| 2026-05-05 21:28 | 60.12784 | 23.41598 | 27196 ft | 394 kts | 257° |
| 2026-05-05 21:28 | 60.12129 | 23.36261 | 27674 ft | 397 kts | 257° |
| 2026-05-05 21:28 | 60.11466 | 23.30882 | 28154 ft | 400 kts | 256° |
| 2026-05-05 21:29 | 60.10793 | 23.25439 | 28623 ft | 403 kts | 257° |
| 2026-05-05 21:29 | 60.10122 | 23.20041 | 29048 ft | 406 kts | 257° |
| 2026-05-05 21:29 | 60.09430 | 23.14481 | 29485 ft | 409 kts | 257° |
| 2026-05-05 21:29 | 60.08737 | 23.08947 | 29906 ft | 412 kts | 257° |
| 2026-05-05 21:30 | 60.08043 | 23.03417 | 30295 ft | 415 kts | 257° |
| 2026-05-05 21:30 | 60.07337 | 22.97815 | 30733 ft | 416 kts | 257° |
| 2026-05-05 21:30 | 60.06630 | 22.92226 | 31156 ft | 417 kts | 257° |
| 2026-05-05 21:30 | 60.05916 | 22.86605 | 31552 ft | 419 kts | 257° |
| 2026-05-05 21:31 | 60.05190 | 22.80908 | 31961 ft | 420 kts | 257° |
| 2026-05-05 21:31 | 60.04469 | 22.75275 | 32303 ft | 423 kts | 257° |
| 2026-05-05 21:31 | 60.03742 | 22.69611 | 32625 ft | 425 kts | 257° |
| 2026-05-05 21:31 | 60.03001 | 22.63865 | 32970 ft | 427 kts | 257° |
| 2026-05-05 21:32 | 60.02266 | 22.58190 | 33507 ft | 423 kts | 257° |
| 2026-05-05 21:32 | 60.01523 | 22.52472 | 33984 ft | 422 kts | 257° |
| 2026-05-05 21:32 | 60.00791 | 22.46850 | 34396 ft | 421 kts | 257° |
| 2026-05-05 21:32 | 60.00055 | 22.41227 | 34829 ft | 420 kts | 257° |
| 2026-05-05 21:33 | 59.99310 | 22.35557 | 35239 ft | 419 kts | 257° |
| 2026-05-05 21:33 | 59.98580 | 22.30020 | 35630 ft | 419 kts | 256° |
| 2026-05-05 21:33 | 59.97834 | 22.24377 | 35849 ft | 421 kts | 256° |
| 2026-05-05 21:33 | 59.97077 | 22.18677 | 35857 ft | 422 kts | 256° |
| 2026-05-05 21:34 | 59.95583 | 22.07493 | 35858 ft | 418 kts | 256° |
| 2026-05-05 21:34 | 59.94076 | 21.96288 | 35858 ft | 417 kts | 256° |
| 2026-05-05 21:35 | 59.92569 | 21.85157 | 35858 ft | 418 kts | 256° |
| 2026-05-05 21:35 | 59.91052 | 21.74040 | 35858 ft | 418 kts | 256° |
| 2026-05-05 21:36 | 59.89518 | 21.62873 | 35858 ft | 418 kts | 256° |
| 2026-05-05 21:36 | 59.87980 | 21.51763 | 35858 ft | 418 kts | 256° |
| 2026-05-05 21:37 | 59.86427 | 21.40616 | 35857 ft | 418 kts | 256° |
| 2026-05-05 21:37 | 59.84622 | 21.29650 | 35869 ft | 419 kts | 250° |
| 2026-05-05 21:38 | 59.82481 | 21.18910 | 35893 ft | 419 kts | 250° |
| 2026-05-05 21:38 | 59.80399 | 21.08080 | 35912 ft | 419 kts | 250° |
| 2026-05-05 21:39 | 59.78324 | 20.97414 | 35912 ft | 417 kts | 250° |
| 2026-05-05 21:39 | 59.76234 | 20.86705 | 35912 ft | 414 kts | 250° |
| 2026-05-05 21:40 | 59.74146 | 20.76059 | 35912 ft | 414 kts | 250° |
| 2026-05-05 21:40 | 59.72061 | 20.65486 | 35912 ft | 415 kts | 250° |
| 2026-05-05 21:41 | 59.69950 | 20.54831 | 35912 ft | 415 kts | 250° |
| 2026-05-05 21:41 | 59.67837 | 20.44225 | 35912 ft | 415 kts | 250° |
| 2026-05-05 21:42 | 59.65727 | 20.33690 | 35912 ft | 415 kts | 249° |
| 2026-05-05 21:42 | 59.63590 | 20.23078 | 35912 ft | 415 kts | 249° |
| 2026-05-05 21:43 | 59.61453 | 20.12516 | 35912 ft | 415 kts | 249° |
| 2026-05-05 21:43 | 59.59307 | 20.01972 | 35912 ft | 415 kts | 249° |
| 2026-05-05 21:44 | 59.57156 | 19.91453 | 35912 ft | 415 kts | 249° |
| 2026-05-05 21:44 | 59.54997 | 19.80956 | 35912 ft | 415 kts | 249° |
| 2026-05-05 21:45 | 59.52827 | 19.70454 | 35912 ft | 415 kts | 249° |
| 2026-05-05 21:45 | 59.50647 | 19.59962 | 35912 ft | 415 kts | 249° |
| 2026-05-05 21:46 | 59.48461 | 19.49494 | 35912 ft | 415 kts | 249° |
| 2026-05-05 21:46 | 59.46267 | 19.39036 | 35912 ft | 415 kts | 249° |
| 2026-05-05 21:47 | 59.44060 | 19.28579 | 35912 ft | 415 kts | 248° |
| 2026-05-05 21:47 | 59.41830 | 19.18063 | 35912 ft | 415 kts | 248° |
| 2026-05-05 21:48 | 59.39622 | 19.07700 | 35912 ft | 414 kts | 247° |
| 2026-05-05 21:48 | 59.37390 | 18.97279 | 35912 ft | 413 kts | 247° |
| 2026-05-05 21:49 | 59.35164 | 18.86943 | 35912 ft | 413 kts | 247° |
| 2026-05-05 21:49 | 59.32941 | 18.76666 | 35912 ft | 413 kts | 247° |
| 2026-05-05 21:50 | 59.30689 | 18.66307 | 35912 ft | 413 kts | 247° |
| 2026-05-05 21:50 | 59.28440 | 18.56018 | 35912 ft | 413 kts | 247° |
| 2026-05-05 21:51 | 59.26182 | 18.45735 | 35912 ft | 413 kts | 247° |
| 2026-05-05 21:51 | 59.23908 | 18.35433 | 35912 ft | 413 kts | 247° |
| 2026-05-05 21:52 | 59.20491 | 18.20047 | 35912 ft | 413 kts | 246° |
| 2026-05-05 21:53 | 59.18208 | 18.09824 | 35912 ft | 413 kts | 246° |
| 2026-05-05 21:53 | 59.15902 | 17.99552 | 35912 ft | 413 kts | 246° |
| 2026-05-05 21:54 | 59.13604 | 17.89363 | 35912 ft | 413 kts | 246° |
| 2026-05-05 21:54 | 59.11285 | 17.79133 | 35912 ft | 413 kts | 246° |
| 2026-05-05 21:55 | 59.08975 | 17.68989 | 35906 ft | 413 kts | 246° |
| 2026-05-05 21:55 | 59.06647 | 17.58822 | 35894 ft | 413 kts | 246° |
| 2026-05-05 21:56 | 59.04308 | 17.48649 | 35885 ft | 413 kts | 246° |
| 2026-05-05 21:56 | 59.01957 | 17.38472 | 35888 ft | 413 kts | 246° |
| 2026-05-05 21:57 | 58.99608 | 17.28356 | 35897 ft | 413 kts | 245° |
| 2026-05-05 21:57 | 58.97242 | 17.18210 | 35906 ft | 414 kts | 246° |
| 2026-05-05 21:58 | 58.94877 | 17.08122 | 35914 ft | 414 kts | 246° |
| 2026-05-05 21:58 | 58.92490 | 16.97985 | 35926 ft | 414 kts | 246° |
| 2026-05-05 21:59 | 58.90104 | 16.87895 | 35935 ft | 412 kts | 245° |
| 2026-05-05 21:59 | 58.87729 | 16.77902 | 35938 ft | 409 kts | 245° |
| 2026-05-05 22:00 | 58.85353 | 16.67956 | 35939 ft | 409 kts | 245° |
| 2026-05-05 22:00 | 58.82959 | 16.57978 | 35939 ft | 410 kts | 245° |
| 2026-05-05 22:01 | 58.80563 | 16.48035 | 35939 ft | 410 kts | 245° |
| 2026-05-05 22:01 | 58.78160 | 16.38108 | 35939 ft | 410 kts | 245° |
| 2026-05-05 22:02 | 58.75759 | 16.28235 | 35939 ft | 410 kts | 244° |
| 2026-05-05 22:02 | 58.73327 | 16.18278 | 35939 ft | 410 kts | 244° |
| 2026-05-05 22:03 | 58.70914 | 16.08449 | 35939 ft | 410 kts | 244° |
| 2026-05-05 22:03 | 58.68477 | 15.98562 | 35939 ft | 409 kts | 244° |
| 2026-05-05 22:04 | 58.66030 | 15.88681 | 35939 ft | 410 kts | 244° |
| 2026-05-05 22:04 | 58.63588 | 15.78864 | 35939 ft | 410 kts | 244° |
| 2026-05-05 22:05 | 58.61127 | 15.69014 | 35939 ft | 410 kts | 244° |
| 2026-05-05 22:05 | 58.58668 | 15.59217 | 35939 ft | 410 kts | 244° |
| 2026-05-05 22:06 | 58.56193 | 15.49399 | 35939 ft | 410 kts | 244° |
| 2026-05-05 22:06 | 58.53719 | 15.39627 | 35939 ft | 410 kts | 244° |
| 2026-05-05 22:07 | 58.51232 | 15.29850 | 35939 ft | 410 kts | 243° |
| 2026-05-05 22:07 | 58.48735 | 15.20075 | 35939 ft | 410 kts | 243° |
| 2026-05-05 22:08 | 58.46231 | 15.10317 | 35939 ft | 409 kts | 244° |
| 2026-05-05 22:08 | 58.43724 | 15.00589 | 35939 ft | 410 kts | 244° |
| 2026-05-05 22:09 | 58.41195 | 14.90819 | 35939 ft | 412 kts | 244° |
| 2026-05-05 22:09 | 58.38657 | 14.81058 | 35939 ft | 412 kts | 244° |
| 2026-05-05 22:10 | 58.36109 | 14.71298 | 35939 ft | 412 kts | 244° |
| 2026-05-05 22:10 | 58.33569 | 14.61616 | 35939 ft | 412 kts | 244° |
| 2026-05-05 22:11 | 58.30999 | 14.51857 | 35939 ft | 412 kts | 244° |
| 2026-05-05 22:11 | 58.28434 | 14.42160 | 35939 ft | 412 kts | 244° |
| 2026-05-05 22:12 | 58.25851 | 14.32441 | 35939 ft | 412 kts | 243° |
| 2026-05-05 22:12 | 58.23275 | 14.22786 | 35939 ft | 412 kts | 243° |
| 2026-05-05 22:13 | 58.20681 | 14.13107 | 35939 ft | 412 kts | 243° |
| 2026-05-05 22:13 | 58.18089 | 14.03478 | 35939 ft | 412 kts | 243° |
| 2026-05-05 22:14 | 58.15476 | 13.93812 | 35939 ft | 412 kts | 243° |
| 2026-05-05 22:14 | 58.12866 | 13.84197 | 35939 ft | 412 kts | 243° |
| 2026-05-05 22:15 | 58.10246 | 13.74584 | 35939 ft | 412 kts | 243° |
| 2026-05-05 22:15 | 58.07621 | 13.64997 | 35939 ft | 412 kts | 243° |
| 2026-05-05 22:16 | 58.04989 | 13.55420 | 35939 ft | 412 kts | 243° |
| 2026-05-05 22:16 | 58.02349 | 13.45857 | 35939 ft | 412 kts | 243° |
| 2026-05-05 22:17 | 57.99701 | 13.36306 | 35946 ft | 412 kts | 243° |
| 2026-05-05 22:17 | 57.97043 | 13.26759 | 35956 ft | 412 kts | 242° |
| 2026-05-05 22:18 | 57.94381 | 13.17241 | 35966 ft | 412 kts | 242° |
| 2026-05-05 22:18 | 57.91716 | 13.07745 | 35966 ft | 411 kts | 242° |
| 2026-05-05 22:19 | 57.89062 | 12.98334 | 35966 ft | 409 kts | 242° |
| 2026-05-05 22:19 | 57.86391 | 12.88896 | 35966 ft | 409 kts | 242° |
| 2026-05-05 22:20 | 57.83722 | 12.79506 | 35966 ft | 409 kts | 242° |
| 2026-05-05 22:20 | 57.81053 | 12.70155 | 35966 ft | 409 kts | 242° |
| 2026-05-05 22:21 | 57.78360 | 12.60758 | 35966 ft | 409 kts | 242° |
| 2026-05-05 22:21 | 57.75666 | 12.51394 | 35966 ft | 409 kts | 242° |
| 2026-05-05 22:22 | 57.72964 | 12.42040 | 35966 ft | 409 kts | 242° |
| 2026-05-05 22:22 | 57.70262 | 12.32729 | 35966 ft | 409 kts | 242° |
| 2026-05-05 22:23 | 57.67540 | 12.23381 | 35966 ft | 409 kts | 242° |
| 2026-05-05 22:23 | 57.64825 | 12.14097 | 35966 ft | 409 kts | 242° |
| 2026-05-05 22:24 | 57.62112 | 12.04853 | 35966 ft | 409 kts | 242° |
| 2026-05-05 22:24 | 57.59372 | 11.95556 | 35966 ft | 409 kts | 242° |
| 2026-05-05 22:25 | 57.56632 | 11.86299 | 35966 ft | 409 kts | 242° |
| 2026-05-05 22:25 | 57.53882 | 11.77044 | 35966 ft | 408 kts | 242° |
| 2026-05-05 22:26 | 57.51151 | 11.67888 | 35966 ft | 408 kts | 242° |
| 2026-05-05 22:26 | 57.48382 | 11.58642 | 35966 ft | 408 kts | 242° |
| 2026-05-05 22:27 | 57.45617 | 11.49447 | 35966 ft | 408 kts | 242° |
| 2026-05-05 22:27 | 57.42844 | 11.40254 | 35966 ft | 408 kts | 242° |
| 2026-05-05 22:28 | 57.40226 | 11.30945 | 35966 ft | 408 kts | 243° |
| 2026-05-05 22:28 | 57.37637 | 11.21625 | 35966 ft | 408 kts | 243° |
| 2026-05-05 22:29 | 57.35022 | 11.12326 | 35966 ft | 408 kts | 243° |
| 2026-05-05 22:29 | 57.32401 | 11.03033 | 35966 ft | 408 kts | 243° |
| 2026-05-05 22:30 | 57.29793 | 10.93826 | 35975 ft | 403 kts | 242° |
| 2026-05-05 22:30 | 57.27212 | 10.84756 | 35985 ft | 396 kts | 242° |
| 2026-05-05 22:31 | 57.24656 | 10.75809 | 35988 ft | 392 kts | 242° |
| 2026-05-05 22:31 | 57.22109 | 10.66929 | 35988 ft | 393 kts | 242° |
| 2026-05-05 22:32 | 57.19548 | 10.58034 | 35991 ft | 394 kts | 242° |
| 2026-05-05 22:32 | 57.16986 | 10.49169 | 35993 ft | 394 kts | 242° |
| 2026-05-05 22:33 | 57.14417 | 10.40315 | 35993 ft | 393 kts | 242° |
| 2026-05-05 22:33 | 57.11830 | 10.31437 | 35992 ft | 394 kts | 241° |
| 2026-05-05 22:34 | 57.09236 | 10.22564 | 35993 ft | 394 kts | 242° |
| 2026-05-05 22:34 | 57.06645 | 10.13736 | 35993 ft | 394 kts | 242° |
| 2026-05-05 22:35 | 57.04042 | 10.04901 | 35993 ft | 395 kts | 243° |
| 2026-05-05 22:35 | 57.01432 | 9.96076 | 35993 ft | 396 kts | 244° |
| 2026-05-05 22:36 | 56.98806 | 9.87229 | 35993 ft | 397 kts | 244° |
| 2026-05-05 22:36 | 56.96163 | 9.78360 | 35993 ft | 399 kts | 245° |
| 2026-05-05 22:37 | 56.93492 | 9.69430 | 35993 ft | 400 kts | 245° |
| 2026-05-05 22:37 | 56.90833 | 9.60574 | 35993 ft | 399 kts | 245° |
| 2026-05-05 22:38 | 56.88142 | 9.51647 | 35989 ft | 399 kts | 245° |
| 2026-05-05 22:38 | 56.85481 | 9.42854 | 35981 ft | 399 kts | 245° |
| 2026-05-05 22:39 | 56.82786 | 9.33979 | 35971 ft | 399 kts | 244° |
| 2026-05-05 22:39 | 56.80096 | 9.25156 | 35966 ft | 400 kts | 244° |
| 2026-05-05 22:40 | 56.77393 | 9.16323 | 35966 ft | 399 kts | 244° |
| 2026-05-05 22:40 | 56.74693 | 9.07531 | 35966 ft | 398 kts | 244° |
| 2026-05-05 22:41 | 56.72012 | 8.98841 | 35965 ft | 389 kts | 244° |
| 2026-05-05 22:41 | 56.69385 | 8.90351 | 35966 ft | 381 kts | 243° |
| 2026-05-05 22:42 | 56.66810 | 8.82056 | 35966 ft | 377 kts | 243° |
| 2026-05-05 22:42 | 56.64227 | 8.73763 | 35966 ft | 379 kts | 243° |
| 2026-05-05 22:43 | 56.61628 | 8.65454 | 35966 ft | 380 kts | 243° |
| 2026-05-05 22:43 | 56.59012 | 8.57117 | 35966 ft | 379 kts | 243° |
| 2026-05-05 22:44 | 56.56409 | 8.48851 | 35966 ft | 379 kts | 243° |
| 2026-05-05 22:44 | 56.53789 | 8.40560 | 35966 ft | 379 kts | 243° |
| 2026-05-05 22:45 | 56.51177 | 8.32325 | 35965 ft | 380 kts | 243° |
| 2026-05-05 22:45 | 56.48541 | 8.24037 | 35966 ft | 380 kts | 242° |
| 2026-05-05 22:46 | 56.45909 | 8.15800 | 35966 ft | 380 kts | 242° |
| 2026-05-05 22:46 | 56.43270 | 8.07563 | 35966 ft | 380 kts | 242° |
| 2026-05-05 22:47 | 56.40619 | 7.99318 | 35966 ft | 380 kts | 242° |
| 2026-05-05 22:47 | 56.37965 | 7.91095 | 35966 ft | 380 kts | 242° |
| 2026-05-05 22:48 | 56.35324 | 7.82937 | 35966 ft | 380 kts | 242° |
| 2026-05-05 22:48 | 56.32659 | 7.74737 | 35966 ft | 380 kts | 242° |
| 2026-05-05 22:49 | 56.29984 | 7.66529 | 35966 ft | 380 kts | 242° |
| 2026-05-05 22:49 | 56.27321 | 7.58389 | 35966 ft | 380 kts | 242° |
| 2026-05-05 22:50 | 56.24632 | 7.50205 | 35994 ft | 380 kts | 243° |
| 2026-05-05 22:50 | 56.21883 | 7.42082 | 35993 ft | 382 kts | 242° |
| 2026-05-05 22:51 | 56.19089 | 7.34007 | 35993 ft | 382 kts | 242° |
| 2026-05-05 22:51 | 56.16296 | 7.25915 | 35993 ft | 382 kts | 242° |
| 2026-05-05 22:52 | 56.13506 | 7.17883 | 35993 ft | 382 kts | 242° |
| 2026-05-05 22:52 | 56.10709 | 7.09851 | 35992 ft | 375 kts | 241° |
| 2026-05-05 22:53 | 56.07968 | 7.02008 | 35993 ft | 369 kts | 241° |
| 2026-05-05 22:53 | 56.05281 | 6.94337 | 35993 ft | 364 kts | 241° |
| 2026-05-05 22:54 | 56.02597 | 6.86698 | 35993 ft | 364 kts | 241° |
| 2026-05-05 22:54 | 55.99905 | 6.79063 | 35993 ft | 365 kts | 241° |
| 2026-05-05 22:55 | 55.97202 | 6.71422 | 35993 ft | 365 kts | 241° |
| 2026-05-05 22:55 | 55.94275 | 6.64060 | 35987 ft | 369 kts | 233° |
| 2026-05-05 22:56 | 55.90283 | 6.58146 | 35977 ft | 378 kts | 223° |
| 2026-05-05 22:56 | 55.86084 | 6.52570 | 35958 ft | 377 kts | 224° |
| 2026-05-05 22:57 | 55.81903 | 6.46988 | 35939 ft | 377 kts | 224° |
| 2026-05-05 22:57 | 55.77705 | 6.41447 | 35938 ft | 377 kts | 224° |
| 2026-05-05 22:58 | 55.73499 | 6.35916 | 35939 ft | 377 kts | 224° |
| 2026-05-05 22:58 | 55.69293 | 6.30408 | 35939 ft | 378 kts | 223° |
| 2026-05-05 22:59 | 55.65075 | 6.24903 | 35939 ft | 378 kts | 223° |
| 2026-05-05 22:59 | 55.60846 | 6.19401 | 35939 ft | 378 kts | 223° |
| 2026-05-05 23:00 | 55.54507 | 6.11182 | 35939 ft | 378 kts | 223° |
| 2026-05-05 23:00 | 55.50290 | 6.05733 | 35939 ft | 378 kts | 223° |
| 2026-05-05 23:01 | 55.46070 | 6.00296 | 35939 ft | 378 kts | 223° |
| 2026-05-05 23:01 | 55.41825 | 5.94841 | 35939 ft | 378 kts | 223° |
| 2026-05-05 23:02 | 55.37589 | 5.89413 | 35939 ft | 378 kts | 223° |
| 2026-05-05 23:02 | 55.33363 | 5.84011 | 35939 ft | 378 kts | 223° |
| 2026-05-05 23:03 | 55.29132 | 5.78620 | 35939 ft | 378 kts | 223° |
| 2026-05-05 23:03 | 55.24874 | 5.73208 | 35939 ft | 378 kts | 223° |
| 2026-05-05 23:04 | 55.20652 | 5.67855 | 35939 ft | 378 kts | 223° |
| 2026-05-05 23:04 | 55.16398 | 5.62476 | 35939 ft | 378 kts | 223° |
| 2026-05-05 23:05 | 55.12153 | 5.57125 | 35939 ft | 378 kts | 223° |
| 2026-05-05 23:05 | 55.07911 | 5.51791 | 35939 ft | 378 kts | 223° |
| 2026-05-05 23:06 | 55.03657 | 5.46455 | 35939 ft | 378 kts | 223° |
| 2026-05-05 23:06 | 54.99403 | 5.41124 | 35939 ft | 376 kts | 224° |
| 2026-05-05 23:07 | 54.95272 | 5.35676 | 35939 ft | 374 kts | 226° |
| 2026-05-05 23:07 | 54.91121 | 5.30214 | 35939 ft | 375 kts | 225° |
| 2026-05-05 23:08 | 54.86992 | 5.24801 | 35939 ft | 375 kts | 226° |
| 2026-05-05 23:08 | 54.82846 | 5.19378 | 35939 ft | 375 kts | 226° |
| 2026-05-05 23:09 | 54.78672 | 5.13937 | 35939 ft | 375 kts | 226° |
| 2026-05-05 23:09 | 54.74527 | 5.08550 | 35939 ft | 375 kts | 226° |
| 2026-05-05 23:10 | 54.70356 | 5.03142 | 35939 ft | 375 kts | 226° |
| 2026-05-05 23:10 | 54.66219 | 4.97796 | 35939 ft | 373 kts | 226° |
| 2026-05-05 23:11 | 54.62084 | 4.92466 | 35939 ft | 370 kts | 225° |
| 2026-05-05 23:11 | 54.58010 | 4.87225 | 35939 ft | 367 kts | 225° |
| 2026-05-05 23:12 | 54.53936 | 4.81999 | 35939 ft | 365 kts | 225° |
| 2026-05-05 23:12 | 54.49871 | 4.76796 | 35939 ft | 363 kts | 225° |
| 2026-05-05 23:13 | 54.45832 | 4.71639 | 35939 ft | 364 kts | 225° |
| 2026-05-05 23:13 | 54.41780 | 4.66480 | 35939 ft | 364 kts | 225° |
| 2026-05-05 23:14 | 54.37698 | 4.61297 | 35939 ft | 364 kts | 225° |
| 2026-05-05 23:14 | 54.33649 | 4.56167 | 35939 ft | 364 kts | 225° |
| 2026-05-05 23:15 | 54.29580 | 4.51026 | 35939 ft | 364 kts | 225° |
| 2026-05-05 23:15 | 54.25528 | 4.45919 | 35939 ft | 364 kts | 225° |
| 2026-05-05 23:16 | 54.21447 | 4.40789 | 35939 ft | 363 kts | 225° |
| 2026-05-05 23:16 | 54.17412 | 4.35728 | 35939 ft | 363 kts | 225° |
| 2026-05-05 23:17 | 54.13324 | 4.30611 | 35939 ft | 365 kts | 224° |
| 2026-05-05 23:17 | 54.09255 | 4.25536 | 35939 ft | 364 kts | 224° |
| 2026-05-05 23:18 | 54.05179 | 4.20463 | 35939 ft | 364 kts | 224° |
| 2026-05-05 23:18 | 54.01096 | 4.15394 | 35939 ft | 364 kts | 224° |
| 2026-05-05 23:19 | 53.97018 | 4.10344 | 35939 ft | 364 kts | 224° |
| 2026-05-05 23:19 | 53.92942 | 4.05308 | 35939 ft | 364 kts | 224° |
| 2026-05-05 23:20 | 53.88838 | 4.00251 | 35939 ft | 364 kts | 224° |
| 2026-05-05 23:20 | 53.84767 | 3.95246 | 35939 ft | 364 kts | 224° |
| 2026-05-05 23:21 | 53.80825 | 3.89990 | 35939 ft | 360 kts | 228° |
| 2026-05-05 23:21 | 53.76963 | 3.84552 | 35939 ft | 361 kts | 227° |
| 2026-05-05 23:22 | 53.73100 | 3.79207 | 35939 ft | 361 kts | 227° |
| 2026-05-05 23:22 | 53.69223 | 3.73847 | 35939 ft | 361 kts | 227° |
| 2026-05-05 23:23 | 53.65364 | 3.68531 | 35939 ft | 361 kts | 227° |
| 2026-05-05 23:23 | 53.61495 | 3.63214 | 35939 ft | 361 kts | 227° |
| 2026-05-05 23:24 | 53.57607 | 3.57886 | 35939 ft | 361 kts | 227° |
| 2026-05-05 23:24 | 53.53717 | 3.52567 | 35939 ft | 361 kts | 227° |
| 2026-05-05 23:25 | 53.49829 | 3.47266 | 35939 ft | 361 kts | 227° |
| 2026-05-05 23:25 | 53.45940 | 3.41975 | 35939 ft | 361 kts | 227° |
| 2026-05-05 23:26 | 53.42070 | 3.36732 | 35939 ft | 361 kts | 226° |
| 2026-05-05 23:26 | 53.37752 | 3.32175 | 35940 ft | 374 kts | 217° |
| 2026-05-05 23:27 | 53.33135 | 3.28254 | 35939 ft | 373 kts | 217° |
| 2026-05-05 23:27 | 53.28674 | 3.24388 | 35939 ft | 373 kts | 217° |
| 2026-05-05 23:28 | 53.24053 | 3.20447 | 35939 ft | 374 kts | 217° |
| 2026-05-05 23:28 | 53.19424 | 3.16513 | 35939 ft | 374 kts | 217° |
| 2026-05-05 23:29 | 53.14803 | 3.12603 | 35939 ft | 374 kts | 217° |
| 2026-05-05 23:29 | 53.10192 | 3.08714 | 35943 ft | 373 kts | 217° |
| 2026-05-05 23:30 | 53.05628 | 3.04879 | 35946 ft | 369 kts | 218° |
| 2026-05-05 23:30 | 53.01088 | 3.01070 | 35952 ft | 365 kts | 218° |
| 2026-05-05 23:31 | 52.96602 | 2.97261 | 35960 ft | 359 kts | 220° |
| 2026-05-05 23:31 | 52.92622 | 2.92625 | 35965 ft | 343 kts | 230° |
| 2026-05-05 23:32 | 52.89096 | 2.87387 | 35959 ft | 342 kts | 230° |
| 2026-05-05 23:32 | 52.87317 | 2.84773 | 35746 ft | 345 kts | 230° |
| 2026-05-05 23:32 | 52.85523 | 2.82110 | 35492 ft | 343 kts | 230° |
| 2026-05-05 23:33 | 52.83768 | 2.79493 | 35243 ft | 341 kts | 230° |
| 2026-05-05 23:33 | 52.82007 | 2.76863 | 34993 ft | 340 kts | 230° |
| 2026-05-05 23:33 | 52.80267 | 2.74265 | 34745 ft | 340 kts | 230° |
| 2026-05-05 23:33 | 52.78530 | 2.71671 | 34497 ft | 340 kts | 230° |
| 2026-05-05 23:34 | 52.76773 | 2.69047 | 34246 ft | 339 kts | 230° |
| 2026-05-05 23:34 | 52.75019 | 2.66430 | 33995 ft | 339 kts | 230° |
| 2026-05-05 23:34 | 52.73277 | 2.63831 | 33747 ft | 341 kts | 230° |
| 2026-05-05 23:34 | 52.71532 | 2.61230 | 33500 ft | 343 kts | 230° |
| 2026-05-05 23:35 | 52.69760 | 2.58595 | 33128 ft | 340 kts | 230° |
| 2026-05-05 23:35 | 52.68031 | 2.56031 | 32500 ft | 338 kts | 230° |
| 2026-05-05 23:35 | 52.66278 | 2.53416 | 31820 ft | 349 kts | 230° |
| 2026-05-05 23:35 | 52.64450 | 2.50696 | 31074 ft | 350 kts | 229° |
| 2026-05-05 23:36 | 52.62690 | 2.48105 | 30544 ft | 340 kts | 229° |
| 2026-05-05 23:36 | 52.60912 | 2.45471 | 30024 ft | 348 kts | 229° |
| 2026-05-05 23:36 | 52.59131 | 2.42831 | 29474 ft | 344 kts | 229° |
| 2026-05-05 23:36 | 52.57363 | 2.40232 | 28939 ft | 336 kts | 229° |
| 2026-05-05 23:37 | 52.55616 | 2.37649 | 28412 ft | 344 kts | 229° |
| 2026-05-05 23:37 | 52.53866 | 2.35067 | 27867 ft | 337 kts | 228° |
| 2026-05-05 23:37 | 52.52313 | 2.32792 | 27393 ft | 334 kts | 227° |
| 2026-05-05 23:37 | 52.50496 | 2.30113 | 26829 ft | 340 kts | 227° |
| 2026-05-05 23:38 | 52.48769 | 2.27580 | 26293 ft | 330 kts | 227° |
| 2026-05-05 23:38 | 52.47061 | 2.25075 | 25772 ft | 333 kts | 227° |
| 2026-05-05 23:38 | 52.45338 | 2.22541 | 25229 ft | 333 kts | 227° |
| 2026-05-05 23:38 | 52.43650 | 2.20079 | 24702 ft | 324 kts | 227° |
| 2026-05-05 23:39 | 52.41961 | 2.17604 | 24182 ft | 332 kts | 227° |
| 2026-05-05 23:39 | 52.40246 | 2.15096 | 23638 ft | 326 kts | 226° |
| 2026-05-05 23:39 | 52.38580 | 2.12672 | 23121 ft | 323 kts | 226° |
| 2026-05-05 23:39 | 52.36898 | 2.10164 | 22588 ft | 328 kts | 229° |
| 2026-05-05 23:40 | 52.35417 | 2.07450 | 22087 ft | 315 kts | 236° |
| 2026-05-05 23:40 | 52.34258 | 2.04418 | 22006 ft | 319 kts | 244° |
| 2026-05-05 23:40 | 52.33349 | 2.01117 | 21991 ft | 323 kts | 247° |
| 2026-05-05 23:40 | 52.32463 | 1.97722 | 21992 ft | 323 kts | 246° |
| 2026-05-05 23:41 | 52.31558 | 1.94366 | 21992 ft | 323 kts | 246° |
| 2026-05-05 23:41 | 52.30660 | 1.91021 | 21991 ft | 323 kts | 247° |
| 2026-05-05 23:41 | 52.29764 | 1.87652 | 21771 ft | 325 kts | 247° |
| 2026-05-05 23:41 | 52.28884 | 1.84338 | 21386 ft | 312 kts | 247° |
| 2026-05-05 23:42 | 52.28016 | 1.81077 | 20899 ft | 316 kts | 247° |
| 2026-05-05 23:42 | 52.27146 | 1.77810 | 20369 ft | 316 kts | 246° |
| 2026-05-05 23:42 | 52.26284 | 1.74568 | 19850 ft | 309 kts | 246° |
| 2026-05-05 23:42 | 52.25421 | 1.71330 | 19333 ft | 318 kts | 246° |
| 2026-05-05 23:43 | 52.24544 | 1.68043 | 18794 ft | 308 kts | 246° |
| 2026-05-05 23:43 | 52.23687 | 1.64834 | 18284 ft | 314 kts | 246° |
| 2026-05-05 23:43 | 52.22823 | 1.61604 | 17754 ft | 311 kts | 246° |
| 2026-05-05 23:43 | 52.21967 | 1.58407 | 17237 ft | 308 kts | 246° |
| 2026-05-05 23:44 | 52.21109 | 1.55207 | 16718 ft | 313 kts | 246° |
| 2026-05-05 23:44 | 52.20251 | 1.52010 | 16191 ft | 304 kts | 246° |
| 2026-05-05 23:44 | 52.19385 | 1.48793 | 15672 ft | 313 kts | 246° |
| 2026-05-05 23:44 | 52.18527 | 1.45605 | 15142 ft | 305 kts | 246° |
| 2026-05-05 23:45 | 52.17672 | 1.42431 | 14628 ft | 309 kts | 246° |
| 2026-05-05 23:45 | 52.16817 | 1.39265 | 14100 ft | 307 kts | 246° |
| 2026-05-05 23:45 | 52.15959 | 1.36090 | 13583 ft | 305 kts | 246° |
| 2026-05-05 23:45 | 52.15126 | 1.33017 | 13076 ft | 309 kts | 245° |
| 2026-05-05 23:46 | 52.14266 | 1.29843 | 12641 ft | 297 kts | 245° |
| 2026-05-05 23:46 | 52.13458 | 1.26864 | 12385 ft | 282 kts | 245° |
| 2026-05-05 23:46 | 52.12673 | 1.23976 | 12269 ft | 278 kts | 245° |
| 2026-05-05 23:46 | 52.11917 | 1.21129 | 12019 ft | 272 kts | 249° |
| 2026-05-05 23:47 | 52.11395 | 1.18211 | 11997 ft | 267 kts | 255° |
| 2026-05-05 23:47 | 52.10924 | 1.15271 | 11993 ft | 268 kts | 254° |
| 2026-05-05 23:47 | 52.10439 | 1.12375 | 11992 ft | 268 kts | 254° |
| 2026-05-05 23:47 | 52.09951 | 1.09441 | 11992 ft | 267 kts | 254° |
| 2026-05-05 23:48 | 52.09463 | 1.06509 | 11993 ft | 267 kts | 254° |
| 2026-05-05 23:48 | 52.08983 | 1.03625 | 11993 ft | 266 kts | 254° |
| 2026-05-05 23:48 | 52.08501 | 1.00738 | 11992 ft | 265 kts | 254° |
| 2026-05-05 23:48 | 52.08028 | 0.97909 | 11883 ft | 252 kts | 255° |
| 2026-05-05 23:49 | 52.07565 | 0.95143 | 11657 ft | 262 kts | 255° |
| 2026-05-05 23:49 | 52.07088 | 0.92301 | 11312 ft | 257 kts | 255° |
| 2026-05-05 23:49 | 52.06620 | 0.89514 | 10970 ft | 258 kts | 256° |
| 2026-05-05 23:49 | 52.06148 | 0.86706 | 10612 ft | 258 kts | 256° |
| 2026-05-05 23:50 | 52.05681 | 0.83935 | 10244 ft | 253 kts | 256° |
| 2026-05-05 23:50 | 52.05209 | 0.81136 | 9984 ft | 252 kts | 256° |
| 2026-05-05 23:50 | 52.04760 | 0.78481 | 9810 ft | 241 kts | 257° |
| 2026-05-05 23:50 | 52.04314 | 0.75840 | 9471 ft | 247 kts | 257° |
| 2026-05-05 23:51 | 52.03865 | 0.73193 | 9149 ft | 241 kts | 257° |
| 2026-05-05 23:51 | 52.03413 | 0.70531 | 8835 ft | 246 kts | 257° |
| 2026-05-05 23:51 | 52.02958 | 0.67858 | 8510 ft | 243 kts | 257° |
| 2026-05-05 23:51 | 52.02516 | 0.65260 | 8237 ft | 242 kts | 257° |
| 2026-05-05 23:52 | 52.02072 | 0.62665 | 8110 ft | 231 kts | 258° |
| 2026-05-05 23:52 | 52.01630 | 0.60241 | 8020 ft | 220 kts | 251° |
| 2026-05-05 23:52 | 52.00724 | 0.58190 | 7986 ft | 235 kts | 225° |
| 2026-05-05 23:52 | 51.99377 | 0.56624 | 7983 ft | 238 kts | 220° |
| 2026-05-05 23:53 | 51.98017 | 0.55085 | 7984 ft | 238 kts | 220° |
| 2026-05-05 23:53 | 51.96670 | 0.53548 | 7986 ft | 238 kts | 220° |
| 2026-05-05 23:53 | 51.95320 | 0.52010 | 7988 ft | 238 kts | 220° |
| 2026-05-05 23:53 | 51.93967 | 0.50467 | 7990 ft | 238 kts | 220° |
| 2026-05-05 23:54 | 51.92599 | 0.48907 | 7957 ft | 240 kts | 220° |
| 2026-05-05 23:54 | 51.91236 | 0.47349 | 7776 ft | 240 kts | 220° |
| 2026-05-05 23:54 | 51.89885 | 0.45805 | 7599 ft | 239 kts | 220° |
| 2026-05-05 23:54 | 51.88540 | 0.44266 | 7313 ft | 240 kts | 220° |
| 2026-05-05 23:55 | 51.87175 | 0.42701 | 7061 ft | 238 kts | 220° |
| 2026-05-05 23:55 | 51.85842 | 0.41123 | 6810 ft | 237 kts | 224° |
| 2026-05-05 23:55 | 51.84591 | 0.39398 | 6560 ft | 236 kts | 225° |
| 2026-05-05 23:55 | 51.83344 | 0.37666 | 6310 ft | 236 kts | 225° |
| 2026-05-05 23:56 | 51.82110 | 0.35951 | 6062 ft | 236 kts | 225° |
| 2026-05-05 23:56 | 51.80943 | 0.34325 | 5827 ft | 236 kts | 225° |
| 2026-05-05 23:56 | 51.79979 | 0.32977 | 5633 ft | 236 kts | 225° |
| 2026-05-05 23:56 | 51.78751 | 0.31255 | 5385 ft | 236 kts | 225° |
| 2026-05-05 23:57 | 51.77392 | 0.29341 | 5110 ft | 236 kts | 225° |
| 2026-05-05 23:57 | 51.76165 | 0.27607 | 4861 ft | 235 kts | 225° |
| 2026-05-05 23:57 | 51.74931 | 0.25855 | 4609 ft | 235 kts | 225° |
| 2026-05-05 23:57 | 51.73710 | 0.24115 | 4359 ft | 235 kts | 225° |
| 2026-05-05 23:58 | 51.72503 | 0.22387 | 4112 ft | 234 kts | 225° |
| 2026-05-05 23:58 | 51.71278 | 0.20627 | 3859 ft | 234 kts | 225° |
| 2026-05-05 23:58 | 51.70075 | 0.18892 | 3593 ft | 233 kts | 225° |
| 2026-05-05 23:58 | 51.68966 | 0.17039 | 3322 ft | 226 kts | 242° |
| 2026-05-05 23:59 | 51.68641 | 0.14731 | 3150 ft | 208 kts | 283° |
| 2026-05-05 23:59 | 51.69227 | 0.12741 | 3032 ft | 197 kts | 310° |
| 2026-05-05 23:59 | 51.70222 | 0.11208 | 2962 ft | 195 kts | 327° |
| 2026-05-05 23:59 | 51.71403 | 0.10127 | 2951 ft | 194 kts | 337° |
| 2026-05-06 00:00 | 51.72649 | 0.09364 | 2937 ft | 194 kts | 340° |
| 2026-05-06 00:00 | 51.73924 | 0.08590 | 2923 ft | 194 kts | 340° |
| 2026-05-06 00:00 | 51.75183 | 0.07828 | 2896 ft | 195 kts | 340° |
| 2026-05-06 00:00 | 51.76464 | 0.07118 | 2867 ft | 189 kts | 348° |
| 2026-05-06 00:01 | 51.77670 | 0.07334 | 2830 ft | 168 kts | 25° |
| 2026-05-06 00:01 | 51.78516 | 0.08546 | 2758 ft | 163 kts | 41° |
| 2026-05-06 00:01 | 51.79328 | 0.09764 | 2596 ft | 160 kts | 39° |
| 2026-05-06 00:01 | 51.80146 | 0.10989 | 2384 ft | 158 kts | 39° |
| 2026-05-06 00:02 | 51.80944 | 0.12180 | 2177 ft | 155 kts | 39° |
| 2026-05-06 00:02 | 51.81743 | 0.13372 | 1964 ft | 155 kts | 40° |
| 2026-05-06 00:02 | 51.82519 | 0.14531 | 1741 ft | 144 kts | 40° |
| 2026-05-06 00:02 | 51.83191 | 0.15536 | 1579 ft | 128 kts | 39° |
| 2026-05-06 00:03 | 51.83856 | 0.16528 | 1394 ft | 128 kts | 40° |
| 2026-05-06 00:03 | 51.84504 | 0.17496 | 1233 ft | 126 kts | 39° |
| 2026-05-06 00:03 | 51.85152 | 0.18429 | 1137 ft | 125 kts | 38° |
| 2026-05-06 00:03 | 51.85810 | 0.19378 | 990 ft | 127 kts | 40° |
| 2026-05-06 00:04 | 51.86433 | 0.20360 | 767 ft | 125 kts | 41° |
| 2026-05-06 00:04 | 51.87057 | 0.21315 | 568 ft | 122 kts | 40° |
| 2026-05-06 00:04 | 51.87681 | 0.22257 | 417 ft | 122 kts | 41° |
| 2026-05-06 00:04 | 51.88286 | 0.23167 | 345 ft | 109 kts | 40° |
| 2026-05-06 00:05 | 51.89117 | 0.24404 | 340 ft | 30 kts | 42° |
| 2026-05-06 00:05 | 51.89238 | 0.24602 | 341 ft | 20 kts | 61° |
| 2026-05-06 00:05 | 51.89234 | 0.24752 | 342 ft | 12 kts | 124° |
| 2026-05-06 00:06 | 51.89179 | 0.24852 | 341 ft | 12 kts | 133° |
| 2026-05-06 00:06 | 51.89172 | 0.24973 | 341 ft | 11 kts | 45° |
| 2026-05-06 00:06 | 51.89232 | 0.25089 | 342 ft | 16 kts | 57° |
| 2026-05-06 00:06 | 51.89311 | 0.25256 | 344 ft | 20 kts | 44° |
| 2026-05-06 00:07 | 51.89395 | 0.25378 | 345 ft | 11 kts | 41° |
| 2026-05-06 00:07 | 51.89416 | 0.25478 | 346 ft | 9 kts | 118° |
| 2026-05-06 00:07 | 51.89370 | 0.25600 | 345 ft | 14 kts | 119° |
| 2026-05-06 00:07 | 51.89310 | 0.25718 | 345 ft | 11 kts | 131° |
| 2026-05-06 00:08 | 51.89290 | 0.25757 | 345 ft | 2 kts | 113° |
| 2026-05-06 00:08 | 51.89294 | 0.25790 | 346 ft | 3 kts | 68° |
| 2026-05-06 00:08 | 51.89305 | 0.25812 | 346 ft | 0 kts | 46° |
| 2026-05-06 00:08 | 51.89310 | 0.25821 | 347 ft | 0 kts | 42° |
| 2026-05-06 00:09 | 51.89313 | 0.25825 | 347 ft | 0 kts | 42° |
| 2026-05-06 00:09 | 51.89313 | 0.25826 | 347 ft | 0 kts | 42° |